Portada
METAR-TAF:

METAR-TAF

Aeroports :

Yap, Micronèsia

latitud: 09-29N, longitud: 138-05E, altitud: 28 m

Observació

L'informe es va fer fa 24 minuts, a les 08:53 UTC
Vent 7 kt del Nord/Nord-Est
Temperatura 27°C
Humitat 89%
Pressió 1011 hPa
Visibilitat: 19.3 km
Escasses núvols a una alçada de 1600 ft
Núvols disperses a una alçada de 30000 ft

METAR: PTYA 020853Z 03007KT 12SM FEW016 SCT300 27/25 A2985 RMK SLP108 8/101 T02700245 52002

Hora: 19:17 (09:17 UTC)

Pronòstic

L'informe es va fer fa 3 hores i 48 minuts, a les 05:29 UTC
Pronòstic vàlid del 02 a les 06 UTC al 03 a les 06 UTC
Vent 11 kt del Est
Visibilitat: 10 km
Escasses núvols a una alçada de 1700 ft
A partir de les 02 a les 0800 UTC
Vent 9 kt del Est/Nord-Est
Visibilitat: 10 km
Escasses núvols a una alçada de 1800 ft
Núvols disperses a una alçada de 5000 ft

TAF: PTYA 020529Z 0206/0306 09011KT P6SM FEW017 FM020800 07009KT P6SM FEW018 SCT050

Observacions i pronòstics meteorològics de més de 4000 aeroports (METAR i TAF).

Les estacions disponibles són els punts grocs i vermells al mapa.

Posi el ratolí al punt desitjat per veure el nom de l'estació.

Feu clic per veure les observacions i els pronòstics meteorològics.

Per canviar el mapa: feu clic els botons verds amb una creu de color negre per apropar; al botó verd amb un guió per allunyar la imatge; o en les fletxes verdes per a mapes adjacents.


METAR-TAF: